createdAt,value
2019-03-30T00:01:01.034Z,78.24
2019-03-30T00:03:39.210Z,78.63
2019-03-30T00:06:14.910Z,79.05
2019-03-30T00:08:50.216Z,79.39
2019-03-30T00:11:24.974Z,79.74
2019-03-30T00:13:59.486Z,79.91
2019-03-30T00:16:35.059Z,79.08
2019-03-30T00:19:09.936Z,79.05
2019-03-30T00:21:45.098Z,78.70
2019-03-30T00:24:21.451Z,78.55
2019-03-30T00:26:57.450Z,78.86
2019-03-30T00:29:38.390Z,79.16
2019-03-30T00:32:14.170Z,79.21
2019-03-30T00:34:55.859Z,79.54
2019-03-30T00:37:30.664Z,79.64
2019-03-30T00:40:07.358Z,79.82
2019-03-30T00:42:42.265Z,80.44
2019-03-30T00:45:18.547Z,80.97
2019-03-30T00:47:53.790Z,81.87
2019-03-30T00:50:28.455Z,82.29
2019-03-30T00:53:03.536Z,82.73
2019-03-30T00:55:39.847Z,83.20
2019-03-30T00:58:16.123Z,83.08
2019-03-30T01:00:51.839Z,83.40
2019-03-30T01:03:27.152Z,84.24
2019-03-30T01:06:02.229Z,84.55
2019-03-30T01:08:38.448Z,85.05
2019-03-30T01:11:15.473Z,85.50
2019-03-30T01:13:50.825Z,85.94
2019-03-30T01:16:25.873Z,86.14
2019-03-30T01:19:01.414Z,86.59
2019-03-30T01:21:36.883Z,86.58
2019-03-30T01:24:11.893Z,86.53
2019-03-30T01:26:46.620Z,86.68
2019-03-30T01:29:21.790Z,86.72
2019-03-30T01:31:56.823Z,86.76
2019-03-30T01:34:31.643Z,86.74
2019-03-30T01:37:06.704Z,86.79
2019-03-30T01:39:42.508Z,85.57
2019-03-30T01:42:17.148Z,84.70
2019-03-30T01:44:51.708Z,83.96
2019-03-30T01:47:26.287Z,83.48
2019-03-30T01:50:16.215Z,82.45
2019-03-30T01:52:52.546Z,81.21
2019-03-30T01:55:27.699Z,80.00
2019-03-30T01:58:02.992Z,78.47
2019-03-30T02:00:38.945Z,77.10
2019-03-30T02:03:13.395Z,76.44
2019-03-30T02:05:48.646Z,75.91
2019-03-30T02:08:23.294Z,74.78
2019-03-30T02:10:58.305Z,73.85
2019-03-30T02:13:32.982Z,73.15
2019-03-30T02:16:07.607Z,72.98
2019-03-30T02:18:43.710Z,73.02
2019-03-30T02:21:19.047Z,72.90
2019-03-30T02:23:53.886Z,72.52
2019-03-30T02:26:30.233Z,72.12
2019-03-30T02:29:05.042Z,71.94
2019-03-30T02:31:40.950Z,71.92
2019-03-30T02:34:17.023Z,71.69
2019-03-30T02:36:52.260Z,71.41
2019-03-30T02:39:27.201Z,71.78
2019-03-30T02:42:02.026Z,72.11
2019-03-30T02:44:36.650Z,71.98
2019-03-30T02:47:12.127Z,71.97
2019-03-30T02:49:47.206Z,72.27
2019-03-30T02:52:22.770Z,72.53
2019-03-30T02:54:59.890Z,72.47
2019-03-30T02:57:34.446Z,72.76
2019-03-30T03:00:14.585Z,72.73
2019-03-30T03:02:49.660Z,72.83
2019-03-30T03:05:24.431Z,72.96
2019-03-30T03:07:59.356Z,73.38
2019-03-30T03:10:35.296Z,73.36
2019-03-30T03:13:10.147Z,73.80
2019-03-30T03:15:44.935Z,74.31
2019-03-30T03:18:19.514Z,74.61
2019-03-30T03:21:07.571Z,74.61
2019-03-30T03:23:44.424Z,75.01
2019-03-30T03:26:19.170Z,75.31
2019-03-30T03:28:54.507Z,75.34
2019-03-30T03:31:29.366Z,75.03
2019-03-30T03:34:04.342Z,74.98
2019-03-30T03:36:39.119Z,75.27
2019-03-30T03:39:13.717Z,75.68
2019-03-30T03:41:48.733Z,75.99
2019-03-30T03:44:24.548Z,75.88
2019-03-30T03:46:59.541Z,75.65
2019-03-30T03:49:34.830Z,75.78
2019-03-30T03:52:09.791Z,76.25
2019-03-30T03:54:46.311Z,76.14
2019-03-30T03:57:29.041Z,75.81
2019-03-30T04:00:08.967Z,75.87
2019-03-30T04:02:45.596Z,76.04
2019-03-30T04:05:23.807Z,75.78
2019-03-30T04:08:05.056Z,75.06
2019-03-30T04:10:46.244Z,75.14
2019-03-30T04:13:25.427Z,75.05
2019-03-30T04:15:59.945Z,74.84
2019-03-30T04:18:35.114Z,74.95
2019-03-30T04:21:10.438Z,75.06
2019-03-30T04:23:44.867Z,75.06
2019-03-30T04:26:19.923Z,75.25
2019-03-30T04:28:54.525Z,75.23
2019-03-30T04:31:29.655Z,74.95
2019-03-30T04:34:04.814Z,75.39
2019-03-30T04:36:39.642Z,75.78
2019-03-30T04:39:14.664Z,75.74
2019-03-30T04:41:50.006Z,75.93
2019-03-30T04:44:24.648Z,75.62
2019-03-30T04:46:59.424Z,75.66
2019-03-30T04:49:34.464Z,75.60
2019-03-30T04:52:09.167Z,75.73
2019-03-30T04:54:43.715Z,75.87
2019-03-30T04:57:21.368Z,76.22
2019-03-30T04:59:56.257Z,75.92
2019-03-30T05:02:31.452Z,76.33
2019-03-30T05:05:06.974Z,76.33
2019-03-30T05:07:42.130Z,76.22
2019-03-30T05:10:17.042Z,76.12
2019-03-30T05:12:53.019Z,76.44
2019-03-30T05:15:27.538Z,76.69
2019-03-30T05:18:02.652Z,76.86
2019-03-30T05:20:37.686Z,77.48
2019-03-30T05:23:12.551Z,77.72
2019-03-30T05:25:47.300Z,77.52
2019-03-30T05:28:22.328Z,77.49
2019-03-30T05:30:59.351Z,77.58
2019-03-30T05:33:35.369Z,77.84
2019-03-30T05:36:10.394Z,78.01
2019-03-30T05:38:45.254Z,78.10
2019-03-30T05:41:20.244Z,77.76
2019-03-30T05:43:56.040Z,77.55
2019-03-30T05:46:31.198Z,77.27
2019-03-30T05:49:05.928Z,76.69
2019-03-30T05:51:40.805Z,75.71
2019-03-30T05:54:17.369Z,75.24
2019-03-30T05:56:52.480Z,74.98
2019-03-30T05:59:27.650Z,74.81
2019-03-30T06:02:02.368Z,74.64
2019-03-30T06:04:36.878Z,74.47
2019-03-30T06:07:12.830Z,74.34
2019-03-30T06:09:47.721Z,74.23
2019-03-30T06:12:22.495Z,73.75
2019-03-30T06:14:57.673Z,73.36
2019-03-30T06:17:32.275Z,72.96
2019-03-30T06:20:10.560Z,72.65
2019-03-30T06:22:45.329Z,72.12
2019-03-30T06:25:20.042Z,71.91
2019-03-30T06:27:56.183Z,71.41
2019-03-30T06:30:31.421Z,71.06
2019-03-30T06:33:07.675Z,70.76
2019-03-30T06:35:44.271Z,69.90
2019-03-30T06:38:19.971Z,68.98
2019-03-30T06:40:54.553Z,68.12
2019-03-30T06:43:29.492Z,67.00
2019-03-30T06:46:06.663Z,66.05
2019-03-30T06:48:41.214Z,65.09
2019-03-30T06:51:16.225Z,64.72
2019-03-30T06:53:50.929Z,64.03
2019-03-30T06:56:27.610Z,63.64
2019-03-30T06:59:04.134Z,63.38
2019-03-30T07:01:39.722Z,62.74
2019-03-30T07:04:15.563Z,61.58
2019-03-30T07:06:53.186Z,61.29
2019-03-30T07:09:32.572Z,60.88
2019-03-30T07:12:08.989Z,60.13
2019-03-30T07:14:51.560Z,59.75
2019-03-30T07:17:27.003Z,59.82
2019-03-30T07:20:19.827Z,59.67
2019-03-30T07:23:10.678Z,59.24
2019-03-30T07:25:48.201Z,58.94
2019-03-30T07:28:22.777Z,58.83
2019-03-30T07:30:58.066Z,58.35
2019-03-30T07:33:32.673Z,57.79
2019-03-30T07:36:07.518Z,57.89
2019-03-30T07:38:43.814Z,58.26
2019-03-30T07:41:21.311Z,57.83
2019-03-30T07:43:56.323Z,57.74
2019-03-30T07:46:31.375Z,57.28
2019-03-30T07:49:07.195Z,57.05
2019-03-30T07:51:42.281Z,57.23
2019-03-30T07:54:20.934Z,57.17
2019-03-30T07:57:05.384Z,56.81
2019-03-30T07:59:48.218Z,56.34
2019-03-30T08:02:24.425Z,55.92
2019-03-30T08:05:00.986Z,55.75
2019-03-30T08:07:37.951Z,55.35
2019-03-30T08:10:14.345Z,54.56
2019-03-30T08:12:50.414Z,54.14
2019-03-30T08:15:26.707Z,53.81
2019-03-30T08:18:03.731Z,52.92
2019-03-30T08:20:38.908Z,50.91
2019-03-30T08:23:14.341Z,49.65
2019-03-30T08:25:50.007Z,48.24
2019-03-30T08:28:25.170Z,47.09
2019-03-30T08:31:01.426Z,46.87
2019-03-30T08:33:36.175Z,47.13
2019-03-30T08:36:11.885Z,47.48
2019-03-30T08:38:47.668Z,47.42
2019-03-30T08:41:22.667Z,47.64
2019-03-30T08:43:59.148Z,47.41
2019-03-30T08:46:34.595Z,45.94
2019-03-30T08:49:09.405Z,45.79
2019-03-30T08:51:45.734Z,45.27
2019-03-30T08:54:20.714Z,44.50
2019-03-30T08:56:57.972Z,42.27
2019-03-30T08:59:34.122Z,41.51
2019-03-30T09:02:08.903Z,41.36
2019-03-30T09:04:43.862Z,40.07
2019-03-30T09:07:19.043Z,39.25
2019-03-30T09:09:53.701Z,38.93
2019-03-30T09:12:30.906Z,39.55
2019-03-30T09:15:09.891Z,39.94
2019-03-30T09:17:47.572Z,40.47
2019-03-30T09:20:26.132Z,40.92
2019-03-30T09:23:02.069Z,39.87
2019-03-30T09:25:36.775Z,39.45
2019-03-30T09:28:12.126Z,39.91
2019-03-30T09:30:48.814Z,40.13
2019-03-30T09:33:35.731Z,40.27
2019-03-30T09:36:11.321Z,39.76
2019-03-30T09:38:49.272Z,40.69
2019-03-30T09:41:26.499Z,40.40
2019-03-30T09:44:03.280Z,39.68
2019-03-30T09:46:39.011Z,40.21
2019-03-30T09:49:14.344Z,39.90
2019-03-30T09:51:49.499Z,39.01
2019-03-30T09:54:25.518Z,39.67
2019-03-30T09:57:01.701Z,38.42
2019-03-30T09:59:39.591Z,38.93
2019-03-30T10:02:16.933Z,39.97
2019-03-30T10:04:54.156Z,39.77
2019-03-30T10:07:30.015Z,40.00
2019-03-30T10:10:12.138Z,40.64
2019-03-30T10:12:47.854Z,39.55
2019-03-30T10:15:23.021Z,39.40
2019-03-30T10:17:59.925Z,38.36
2019-03-30T10:20:36.158Z,38.48
2019-03-30T10:23:10.739Z,37.24
2019-03-30T10:25:49.894Z,37.54
2019-03-30T10:28:26.748Z,38.44
2019-03-30T10:31:01.870Z,38.98
2019-03-30T10:33:39.553Z,39.04
2019-03-30T10:36:14.706Z,37.29
2019-03-30T10:38:53.655Z,36.35
2019-03-30T10:41:30.329Z,37.32
2019-03-30T10:44:05.695Z,36.78
2019-03-30T10:46:43.220Z,35.19
2019-03-30T10:49:26.554Z,34.91
2019-03-30T10:52:07.888Z,34.87
2019-03-30T10:54:52.772Z,33.91
2019-03-30T10:57:33.179Z,34.44
2019-03-30T11:00:49.239Z,34.77
2019-03-30T11:03:30.467Z,35.28
2019-03-30T11:06:08.603Z,35.49
2019-03-30T11:08:44.930Z,35.13
2019-03-30T11:11:29.210Z,35.56
2019-03-30T11:14:07.833Z,35.04
2019-03-30T11:16:53.005Z,33.78
2019-03-30T11:19:38.570Z,34.00
2019-03-30T11:22:21.459Z,33.71
2019-03-30T11:25:07.967Z,34.30
2019-03-30T11:27:56.738Z,32.59
2019-03-30T11:30:36.247Z,33.42
2019-03-30T11:33:12.389Z,33.70
2019-03-30T11:35:49.891Z,33.30
2019-03-30T11:38:26.331Z,33.04
2019-03-30T11:41:04.355Z,32.64
2019-03-30T11:43:45.442Z,33.43
2019-03-30T11:46:20.820Z,33.18
2019-03-30T11:48:57.233Z,31.86
2019-03-30T11:51:32.326Z,31.88
2019-03-30T11:54:11.387Z,32.15
2019-03-30T11:56:46.098Z,32.63
2019-03-30T11:59:22.794Z,33.08
2019-03-30T12:01:58.084Z,33.04
2019-03-30T12:04:33.564Z,33.21
2019-03-30T12:07:09.913Z,33.17
2019-03-30T12:09:47.593Z,32.71
2019-03-30T12:12:23.449Z,32.34
2019-03-30T12:15:06.358Z,32.18
2019-03-30T12:17:42.570Z,31.92
2019-03-30T12:20:17.503Z,31.65
2019-03-30T12:22:52.411Z,31.54
2019-03-30T12:25:35.480Z,31.60
2019-03-30T12:28:12.767Z,31.27
2019-03-30T12:30:50.688Z,31.31
2019-03-30T12:33:26.888Z,31.51
2019-03-30T12:36:04.776Z,31.79
2019-03-30T12:38:42.227Z,31.39
2019-03-30T12:41:19.490Z,31.17
2019-03-30T12:43:55.753Z,31.76
2019-03-30T12:46:31.422Z,31.71
2019-03-30T12:49:06.427Z,31.28
2019-03-30T12:51:43.664Z,30.92
2019-03-30T12:54:24.196Z,30.97
2019-03-30T12:57:00.290Z,30.67
2019-03-30T12:59:37.163Z,31.29
2019-03-30T13:02:12.192Z,30.65
2019-03-30T13:04:47.174Z,31.39
2019-03-30T13:07:23.507Z,30.90
2019-03-30T13:09:59.006Z,31.06
2019-03-30T13:12:33.655Z,30.92
2019-03-30T13:15:09.735Z,31.40
2019-03-30T13:17:47.703Z,31.15
2019-03-30T13:20:26.229Z,30.69
2019-03-30T13:23:02.109Z,29.59
2019-03-30T13:25:39.365Z,29.65
2019-03-30T13:28:16.604Z,30.41
2019-03-30T13:30:54.457Z,30.32
2019-03-30T13:33:30.525Z,30.30
2019-03-30T13:36:06.036Z,29.55
2019-03-30T13:38:40.978Z,30.08
2019-03-30T13:41:16.273Z,30.44
2019-03-30T13:43:51.321Z,30.31
2019-03-30T13:46:34.841Z,30.64
2019-03-30T13:49:11.752Z,30.93
2019-03-30T13:51:48.217Z,30.04
2019-03-30T13:54:22.936Z,30.67
2019-03-30T13:56:57.657Z,30.32
2019-03-30T13:59:33.826Z,29.95
2019-03-30T14:02:09.545Z,30.99
2019-03-30T14:04:44.836Z,29.96
2019-03-30T14:07:20.580Z,30.60
2019-03-30T14:09:55.625Z,29.44
2019-03-30T14:12:31.212Z,30.11
2019-03-30T14:15:09.356Z,29.75
2019-03-30T14:19:15.948Z,30.15
2019-03-30T14:21:51.827Z,30.51
2019-03-30T14:24:30.164Z,30.93
2019-03-30T14:27:05.759Z,30.64
2019-03-30T14:29:43.275Z,29.98
2019-03-30T14:32:18.047Z,30.65
2019-03-30T14:34:55.883Z,30.32
2019-03-30T14:37:34.599Z,30.50
2019-03-30T14:40:11.279Z,30.88
2019-03-30T14:42:46.271Z,30.95
2019-03-30T14:45:25.929Z,30.85
2019-03-30T14:48:05.911Z,29.09
2019-03-30T14:50:40.906Z,30.17
2019-03-30T14:53:17.437Z,30.00
2019-03-30T14:55:53.598Z,30.03
2019-03-30T14:58:28.288Z,30.40
2019-03-30T15:01:05.346Z,30.94
2019-03-30T15:03:41.572Z,30.67
2019-03-30T15:06:17.075Z,30.14
2019-03-30T15:09:07.690Z,30.55
2019-03-30T15:11:43.408Z,29.79
2019-03-30T15:14:18.268Z,29.39
2019-03-30T15:16:53.959Z,29.30
2019-03-30T15:19:29.803Z,29.81
2019-03-30T15:22:06.829Z,29.50
2019-03-30T15:24:43.082Z,29.10
2019-03-30T15:27:17.695Z,29.10
2019-03-30T15:29:53.459Z,29.42
2019-03-30T15:32:29.320Z,29.96
2019-03-30T15:35:08.731Z,29.82
2019-03-30T15:37:44.627Z,29.43
2019-03-30T15:40:19.900Z,29.40
2019-03-30T15:42:57.820Z,30.29
2019-03-30T15:45:35.877Z,30.28
2019-03-30T15:48:11.596Z,30.93
2019-03-30T15:50:46.409Z,30.94
2019-03-30T15:53:22.060Z,31.71
2019-03-30T15:55:57.604Z,30.94
2019-03-30T15:58:33.174Z,31.14
2019-03-30T16:01:08.307Z,30.97
2019-03-30T16:03:43.454Z,30.67
2019-03-30T16:06:19.456Z,30.92
2019-03-30T16:08:56.650Z,31.00
2019-03-30T16:11:32.159Z,31.53
2019-03-30T16:14:08.249Z,31.86
2019-03-30T16:16:43.904Z,31.78
2019-03-30T16:19:19.491Z,31.94
2019-03-30T16:21:55.084Z,32.28
2019-03-30T16:24:31.538Z,32.29
2019-03-30T16:27:09.062Z,33.20
2019-03-30T16:29:45.890Z,33.73
2019-03-30T16:32:21.103Z,33.42
2019-03-30T16:34:55.854Z,33.29
2019-03-30T16:37:31.579Z,32.69
2019-03-30T16:40:07.039Z,32.51
2019-03-30T16:42:43.348Z,32.28
2019-03-30T16:45:18.356Z,32.28
2019-03-30T16:47:55.998Z,32.35
2019-03-30T16:50:33.148Z,32.03
2019-03-30T16:53:15.779Z,31.89
2019-03-30T16:55:52.770Z,32.24
2019-03-30T16:58:30.866Z,32.65
2019-03-30T17:01:07.561Z,33.05
2019-03-30T17:03:44.065Z,33.20
2019-03-30T17:06:20.447Z,33.63
2019-03-30T17:08:55.663Z,33.87
2019-03-30T17:11:31.543Z,33.84
2019-03-30T17:14:06.909Z,33.88
2019-03-30T17:16:44.268Z,34.20
2019-03-30T17:19:23.173Z,35.09
2019-03-30T17:21:58.880Z,34.95
2019-03-30T17:24:37.797Z,35.01
2019-03-30T17:27:13.296Z,35.18
2019-03-30T17:29:48.313Z,35.39
2019-03-30T17:32:26.026Z,35.45
2019-03-30T17:35:03.008Z,35.63
2019-03-30T17:37:39.000Z,35.83
2019-03-30T17:40:14.529Z,35.88
2019-03-30T17:42:50.146Z,35.85
2019-03-30T17:45:28.257Z,35.92
2019-03-30T17:48:04.992Z,36.13
2019-03-30T17:50:41.720Z,36.50
2019-03-30T17:53:23.765Z,36.80
2019-03-30T17:56:02.026Z,37.25
2019-03-30T17:58:38.497Z,37.60
2019-03-30T18:01:17.104Z,37.97
2019-03-30T18:03:53.621Z,38.28
2019-03-30T18:06:36.008Z,38.42
2019-03-30T18:09:18.309Z,38.92
2019-03-30T18:11:57.251Z,39.38
2019-03-30T18:14:36.127Z,39.68
2019-03-30T18:17:14.521Z,40.25
2019-03-30T18:20:05.437Z,41.09
2019-03-30T18:22:44.012Z,41.70
2019-03-30T18:25:33.021Z,42.54
2019-03-30T18:28:08.952Z,44.02
2019-03-30T18:30:47.983Z,44.02
2019-03-30T18:33:25.975Z,44.32
2019-03-30T18:36:02.614Z,45.02
2019-03-30T18:38:41.820Z,45.49
2019-03-30T18:41:21.475Z,47.44
2019-03-30T18:43:57.240Z,47.45
2019-03-30T18:46:33.894Z,47.26
2019-03-30T18:49:12.069Z,47.35
2019-03-30T18:51:51.080Z,47.59
2019-03-30T18:54:31.501Z,48.02
2019-03-30T18:57:11.215Z,48.32
2019-03-30T18:59:50.296Z,48.62
2019-03-30T19:02:25.981Z,49.45
2019-03-30T19:05:03.846Z,50.22
2019-03-30T19:07:41.807Z,50.57
2019-03-30T19:10:16.565Z,50.69
2019-03-30T19:12:53.950Z,51.00
2019-03-30T19:15:30.148Z,51.23
2019-03-30T19:18:06.300Z,51.38
2019-03-30T19:20:42.313Z,51.87
2019-03-30T19:23:17.218Z,52.14
2019-03-30T19:25:54.484Z,53.77
2019-03-30T19:28:30.063Z,57.40
2019-03-30T19:31:12.425Z,60.56
2019-03-30T19:33:50.558Z,61.76
2019-03-30T19:36:27.799Z,61.88
2019-03-30T19:39:04.170Z,62.79
2019-03-30T19:41:40.683Z,62.08
2019-03-30T19:44:16.128Z,61.57
2019-03-30T19:46:51.033Z,61.26
2019-03-30T19:49:29.944Z,61.06
2019-03-30T19:52:06.823Z,60.97
2019-03-30T19:54:43.085Z,62.46
2019-03-30T19:57:19.393Z,62.44
2019-03-30T19:59:55.348Z,62.83
2019-03-30T20:02:31.959Z,62.73
2019-03-30T20:05:08.853Z,62.65
2019-03-30T20:07:43.872Z,63.61
2019-03-30T20:10:23.683Z,65.42
2019-03-30T20:13:00.086Z,67.35
2019-03-30T20:15:37.641Z,70.17
2019-03-30T20:18:15.013Z,69.76
2019-03-30T20:20:49.814Z,69.62
2019-03-30T20:23:27.839Z,70.19
2019-03-30T20:26:05.071Z,71.62
2019-03-30T20:28:47.346Z,70.70
2019-03-30T20:31:23.143Z,71.12
2019-03-30T20:34:01.938Z,70.66
2019-03-30T20:36:38.664Z,70.62
2019-03-30T20:39:14.919Z,71.13
2019-03-30T20:41:50.953Z,72.46
2019-03-30T20:44:30.095Z,72.96
2019-03-30T20:47:05.906Z,72.79
2019-03-30T20:49:43.706Z,73.04
2019-03-30T20:52:19.391Z,74.15
2019-03-30T20:54:54.204Z,74.42
2019-03-30T20:57:31.213Z,74.39
2019-03-30T21:00:08.284Z,74.92
2019-03-30T21:02:44.754Z,75.48
2019-03-30T21:05:20.029Z,76.09
2019-03-30T21:07:55.163Z,76.41
2019-03-30T21:10:29.932Z,76.90
2019-03-30T21:13:05.799Z,77.28
2019-03-30T21:15:43.045Z,78.34
2019-03-30T21:18:18.977Z,78.48
2019-03-30T21:20:56.809Z,78.96
2019-03-30T21:23:31.476Z,78.97
2019-03-30T21:26:09.105Z,78.92
2019-03-30T21:28:45.249Z,79.46
2019-03-30T21:31:21.298Z,78.99
2019-03-30T21:33:56.492Z,78.67
2019-03-30T21:36:32.552Z,78.84
2019-03-30T21:39:11.371Z,78.76
2019-03-30T21:41:47.164Z,79.31
2019-03-30T21:44:23.034Z,79.30
2019-03-30T21:46:57.901Z,79.29
2019-03-30T21:49:32.527Z,79.77
2019-03-30T21:52:07.923Z,80.32
2019-03-30T21:54:42.635Z,80.42
2019-03-30T21:57:18.844Z,81.21
2019-03-30T22:00:08.767Z,80.55
2019-03-30T22:02:45.989Z,80.69
2019-03-30T22:05:21.309Z,81.43
2019-03-30T22:07:57.171Z,82.08
2019-03-30T22:10:34.524Z,81.53
2019-03-30T22:13:10.489Z,81.92
2019-03-30T22:15:45.511Z,81.97
2019-03-30T22:18:22.531Z,82.23
2019-03-30T22:20:58.158Z,82.39
2019-03-30T22:23:34.451Z,82.83
2019-03-30T22:26:13.299Z,83.74
2019-03-30T22:28:48.740Z,84.01
2019-03-30T22:31:25.303Z,84.06
2019-03-30T22:33:59.856Z,84.00
2019-03-30T22:36:36.765Z,83.70
2019-03-30T22:39:12.368Z,83.05
2019-03-30T22:41:51.138Z,83.01
2019-03-30T22:44:25.715Z,83.96
2019-03-30T22:47:00.887Z,84.07
2019-03-30T22:49:36.063Z,83.52
2019-03-30T22:52:11.243Z,83.44
2019-03-30T22:54:46.850Z,84.21
2019-03-30T22:57:24.172Z,84.33
2019-03-30T23:00:01.023Z,84.92
2019-03-30T23:02:39.118Z,85.95
2019-03-30T23:05:14.675Z,85.98
2019-03-30T23:07:51.546Z,86.63
2019-03-30T23:10:28.576Z,87.12
2019-03-30T23:13:04.209Z,86.56
2019-03-30T23:15:41.636Z,86.39
2019-03-30T23:18:17.663Z,86.67
2019-03-30T23:20:56.109Z,87.36
2019-03-30T23:23:31.606Z,86.97
2019-03-30T23:26:08.330Z,87.28
2019-03-30T23:28:43.785Z,87.24
2019-03-30T23:31:19.287Z,87.50
2019-03-30T23:33:53.913Z,87.71
2019-03-30T23:36:28.946Z,87.88
2019-03-30T23:39:06.318Z,88.01
2019-03-30T23:41:41.504Z,88.84
2019-03-30T23:44:16.741Z,89.77
2019-03-30T23:46:52.434Z,89.55
2019-03-30T23:49:27.391Z,90.00
2019-03-30T23:52:02.172Z,90.56
2019-03-30T23:54:37.512Z,90.38
2019-03-30T23:57:13.318Z,90.71
2019-03-30T23:59:48.047Z,91.06
